createdAt,value
2023-05-12T00:02:15.145Z,97769.00
2023-05-12T00:04:42.596Z,97777.59
2023-05-12T00:07:10.219Z,97780.84
2023-05-12T00:09:37.667Z,97782.69
2023-05-12T00:12:05.693Z,97773.25
2023-05-12T00:14:33.104Z,97782.28
2023-05-12T00:17:00.672Z,97776.63
2023-05-12T00:19:28.207Z,97780.63
2023-05-12T00:21:55.664Z,97776.88
2023-05-12T00:24:23.109Z,97781.72
2023-05-12T00:26:50.745Z,97779.03
2023-05-12T00:29:18.774Z,97779.91
2023-05-12T00:31:46.360Z,97778.97
2023-05-12T00:34:13.796Z,97772.09
2023-05-12T00:36:41.469Z,97775.66
2023-05-12T00:39:08.935Z,97778.88
2023-05-12T00:41:36.784Z,97781.88
2023-05-12T00:44:04.380Z,97774.06
2023-05-12T00:46:32.042Z,97776.75
2023-05-12T00:48:59.797Z,97776.69
2023-05-12T00:51:28.099Z,97780.22
2023-05-12T00:53:57.502Z,97780.75
2023-05-12T00:56:26.013Z,97773.47
2023-05-12T00:58:53.637Z,97771.59
2023-05-12T01:01:21.244Z,97780.84
2023-05-12T01:03:53.050Z,97777.53
2023-05-12T01:06:37.157Z,97781.19
2023-05-12T01:09:06.564Z,97765.78
2023-05-12T01:11:34.327Z,97772.50
2023-05-12T01:14:02.241Z,97772.50
2023-05-12T01:16:37.177Z,97777.06
2023-05-12T01:19:10.755Z,97780.03
2023-05-12T01:21:39.185Z,97776.81
2023-05-12T01:24:09.316Z,97773.31
2023-05-12T01:26:38.339Z,97777.06
2023-05-12T01:29:07.790Z,97773.00
2023-05-12T01:31:36.282Z,97774.06
2023-05-12T01:34:03.983Z,97776.19
2023-05-12T01:36:31.792Z,97777.00
2023-05-12T01:38:59.764Z,97779.66
2023-05-12T01:41:27.356Z,97774.38
2023-05-12T01:43:55.171Z,97775.94
2023-05-12T01:46:22.829Z,97777.00
2023-05-12T01:48:50.765Z,97782.03
2023-05-12T01:51:18.396Z,97773.69
2023-05-12T01:53:46.149Z,97771.81
2023-05-12T01:56:14.223Z,97775.66
2023-05-12T01:58:41.690Z,97776.69
2023-05-12T02:01:09.699Z,97780.34
2023-05-12T02:03:38.269Z,97783.81
2023-05-12T02:06:12.682Z,97792.13
2023-05-12T02:08:41.045Z,97788.16
2023-05-12T02:11:09.173Z,97790.28
2023-05-12T02:13:37.076Z,97794.56
2023-05-12T02:16:05.678Z,97785.72
2023-05-12T02:18:33.746Z,97782.81
2023-05-12T02:21:01.257Z,97791.88
2023-05-12T02:23:30.145Z,97787.59
2023-05-12T02:25:57.841Z,97787.00
2023-05-12T02:28:25.416Z,97788.88
2023-05-12T02:30:54.481Z,97779.75
2023-05-12T02:33:23.256Z,97786.13
2023-05-12T02:35:51.859Z,97780.22
2023-05-12T02:38:19.464Z,97783.88
2023-05-12T02:40:47.359Z,97792.97
2023-05-12T02:43:15.928Z,97787.84
2023-05-12T02:45:44.018Z,97784.88
2023-05-12T02:48:11.717Z,97786.41
2023-05-12T02:50:39.191Z,97785.28
2023-05-12T02:53:06.919Z,97786.34
2023-05-12T02:55:34.580Z,97782.53
2023-05-12T02:58:02.250Z,97778.00
2023-05-12T03:00:29.812Z,97784.66
2023-05-12T03:02:57.547Z,97777.94
2023-05-12T03:05:25.062Z,97785.38
2023-05-12T03:07:52.597Z,97777.84
2023-05-12T03:10:20.321Z,97786.38
2023-05-12T03:12:48.183Z,97782.00
2023-05-12T03:15:16.231Z,97781.19
2023-05-12T03:17:43.875Z,97785.97
2023-05-12T03:20:12.365Z,97790.28
2023-05-12T03:22:40.031Z,97783.06
2023-05-12T03:25:10.428Z,97789.03
2023-05-12T03:27:38.133Z,97790.50
2023-05-12T03:30:06.216Z,97790.06
2023-05-12T03:32:39.389Z,97794.28
2023-05-12T03:35:10.001Z,97791.34
2023-05-12T03:37:37.641Z,97788.88
2023-05-12T03:40:06.434Z,97791.41
2023-05-12T03:42:33.956Z,97788.34
2023-05-12T03:45:01.555Z,97786.84
2023-05-12T03:47:29.403Z,97790.13
2023-05-12T03:49:57.586Z,97789.97
2023-05-12T03:52:25.421Z,97799.78
2023-05-12T03:54:52.921Z,97802.97
2023-05-12T03:57:21.246Z,97788.03
2023-05-12T03:59:48.678Z,97792.91
2023-05-12T04:02:16.394Z,97794.78
2023-05-12T04:04:43.975Z,97796.16
2023-05-12T04:07:11.690Z,97799.38
2023-05-12T04:09:39.217Z,97796.47
2023-05-12T04:12:06.992Z,97798.34
2023-05-12T04:14:42.227Z,97802.63
2023-05-12T04:17:11.185Z,97804.22
2023-05-12T04:19:38.760Z,97802.69
2023-05-12T04:22:06.501Z,97806.03
2023-05-12T04:24:34.103Z,97806.59
2023-05-12T04:27:01.951Z,97807.44
2023-05-12T04:29:29.567Z,97794.13
2023-05-12T04:31:57.464Z,97805.72
2023-05-12T04:34:25.478Z,97800.97
2023-05-12T04:36:53.652Z,97801.72
2023-05-12T04:39:21.489Z,97807.47
2023-05-12T04:41:49.257Z,97808.06
2023-05-12T04:44:16.785Z,97800.31
2023-05-12T04:46:44.782Z,97806.59
2023-05-12T04:49:12.446Z,97798.34
2023-05-12T04:51:42.426Z,97802.09
2023-05-12T04:54:10.625Z,97814.69
2023-05-12T04:56:38.632Z,97813.03
2023-05-12T04:59:07.198Z,97813.38
2023-05-12T05:01:34.908Z,97808.63
2023-05-12T05:04:02.964Z,97814.97
2023-05-12T05:06:30.934Z,97811.41
2023-05-12T05:08:59.871Z,97821.13
2023-05-12T05:11:27.471Z,97815.59
2023-05-12T05:13:55.222Z,97821.47
2023-05-12T05:16:23.845Z,97822.94
2023-05-12T05:18:52.287Z,97822.59
2023-05-12T05:21:19.970Z,97819.63
2023-05-12T05:23:47.618Z,97825.69
2023-05-12T05:26:15.542Z,97823.66
2023-05-12T05:28:44.014Z,97826.41
2023-05-12T05:31:17.802Z,97821.84
2023-05-12T05:33:45.220Z,97830.63
2023-05-12T05:36:13.757Z,97829.22
2023-05-12T05:38:41.376Z,97833.28
2023-05-12T05:41:09.508Z,97830.47
2023-05-12T05:43:37.389Z,97836.97
2023-05-12T05:46:05.235Z,97840.47
2023-05-12T05:48:32.858Z,97836.84
2023-05-12T05:51:00.781Z,97842.09
2023-05-12T05:53:28.480Z,97842.16
2023-05-12T05:55:56.223Z,97842.00
2023-05-12T05:58:24.357Z,97843.94
2023-05-12T06:00:51.764Z,97837.28
2023-05-12T06:03:19.604Z,97831.44
2023-05-12T06:05:48.520Z,97848.59
2023-05-12T06:08:16.896Z,97843.94
2023-05-12T06:10:44.425Z,97855.56
2023-05-12T06:13:12.303Z,97846.72
2023-05-12T06:15:39.934Z,97851.75
2023-05-12T06:18:07.595Z,97849.66
2023-05-12T06:20:35.257Z,97851.88
2023-05-12T06:23:02.773Z,97852.44
2023-05-12T06:25:30.313Z,97851.38
2023-05-12T06:27:57.802Z,97849.19
2023-05-12T06:30:25.439Z,97850.81
2023-05-12T06:32:56.075Z,97851.38
2023-05-12T06:35:23.592Z,97856.22
2023-05-12T06:37:51.447Z,97851.09
2023-05-12T06:40:18.988Z,97847.53
2023-05-12T06:42:46.952Z,97848.84
2023-05-12T06:45:20.430Z,97855.31
2023-05-12T06:47:48.553Z,97843.91
2023-05-12T06:50:17.181Z,97852.53
2023-05-12T06:52:45.156Z,97845.94
2023-05-12T06:55:12.844Z,97848.41
2023-05-12T06:57:41.784Z,97847.34
2023-05-12T07:00:10.904Z,97853.63
2023-05-12T07:02:38.455Z,97854.25
2023-05-12T07:05:06.346Z,97861.56
2023-05-12T07:07:33.785Z,97852.97
2023-05-12T07:10:01.297Z,97852.44
2023-05-12T07:12:28.768Z,97859.69
2023-05-12T07:14:56.290Z,97860.78
2023-05-12T07:17:23.953Z,97855.63
2023-05-12T07:19:52.088Z,97852.94
2023-05-12T07:22:22.639Z,97858.47
2023-05-12T07:24:50.606Z,97860.91
2023-05-12T07:27:18.116Z,97862.53
2023-05-12T07:29:45.624Z,97864.94
2023-05-12T07:32:13.537Z,97858.50
2023-05-12T07:34:41.088Z,97864.78
2023-05-12T07:37:08.569Z,97863.69
2023-05-12T07:39:36.287Z,97863.97
2023-05-12T07:42:03.848Z,97868.06
2023-05-12T07:44:33.651Z,97866.16
2023-05-12T07:47:01.261Z,97866.72
2023-05-12T07:49:28.696Z,97870.72
2023-05-12T07:51:56.220Z,97865.13
2023-05-12T07:54:23.701Z,97870.25
2023-05-12T07:56:51.754Z,97872.19
2023-05-12T07:59:19.190Z,97868.22
2023-05-12T08:01:46.778Z,97866.38
2023-05-12T08:04:14.528Z,97866.59
2023-05-12T08:06:41.998Z,97866.81
2023-05-12T08:09:09.467Z,97872.06
2023-05-12T08:11:36.985Z,97864.59
2023-05-12T08:14:04.584Z,97866.03
2023-05-12T08:16:32.065Z,97875.44
2023-05-12T08:18:59.754Z,97867.34
2023-05-12T08:21:28.803Z,97868.31
2023-05-12T08:23:56.255Z,97864.44
2023-05-12T08:26:24.540Z,97871.75
2023-05-12T08:28:51.937Z,97859.59
2023-05-12T08:31:20.363Z,97857.47
2023-05-12T08:33:51.884Z,97856.66
2023-05-12T08:36:26.988Z,97852.34
2023-05-12T08:38:56.404Z,97862.59
2023-05-12T08:41:45.208Z,97854.34
2023-05-12T08:44:13.163Z,97858.88
2023-05-12T08:46:41.047Z,97854.81
2023-05-12T08:49:15.895Z,97861.94
2023-05-12T08:51:56.753Z,97870.28
2023-05-12T08:54:28.062Z,97875.84
2023-05-12T08:59:27.581Z,97867.94
2023-05-12T09:01:55.547Z,97877.56
2023-05-12T09:04:23.191Z,97868.53
2023-05-12T09:06:52.562Z,97865.56
2023-05-12T09:09:22.199Z,97862.66
2023-05-12T09:11:53.335Z,97872.47
2023-05-12T09:14:26.157Z,97865.59
2023-05-12T09:17:04.903Z,97862.69
2023-05-12T09:19:32.784Z,97866.81
2023-05-12T09:22:01.812Z,97868.72
2023-05-12T09:24:36.882Z,97868.59
2023-05-12T09:27:04.808Z,97877.19
2023-05-12T09:29:39.561Z,97875.47
2023-05-12T09:32:12.769Z,97869.84
2023-05-12T09:34:41.650Z,97877.59
2023-05-12T09:37:09.481Z,97880.31
2023-05-12T09:39:37.115Z,97878.22
2023-05-12T09:42:11.221Z,97868.50
2023-05-12T09:44:40.942Z,97879.50
2023-05-12T09:47:10.714Z,97873.75
2023-05-12T09:49:38.520Z,97887.41
2023-05-12T09:52:06.509Z,97880.50
2023-05-12T09:54:34.695Z,97884.34
2023-05-12T09:57:05.194Z,97882.81
2023-05-12T09:59:36.444Z,97887.69
2023-05-12T10:02:06.737Z,97880.28
2023-05-12T10:05:06.972Z,97878.41
2023-05-12T10:07:35.461Z,97871.34
2023-05-12T10:10:05.631Z,97880.59
2023-05-12T10:12:35.007Z,97884.69
2023-05-12T10:15:03.565Z,97879.38
2023-05-12T10:17:32.108Z,97883.22
2023-05-12T10:20:00.176Z,97879.69
2023-05-12T10:22:31.353Z,97873.81
2023-05-12T10:25:00.001Z,97885.06
2023-05-12T10:27:29.324Z,97889.25
2023-05-12T10:29:57.002Z,97867.22
2023-05-12T10:32:24.571Z,97864.00
2023-05-12T10:34:52.327Z,97885.06
2023-05-12T10:37:19.805Z,97875.31
2023-05-12T10:39:49.311Z,97874.22
2023-05-12T10:42:23.101Z,97869.44
2023-05-12T10:44:55.487Z,97869.50
2023-05-12T10:47:36.095Z,97872.88
2023-05-12T10:50:04.022Z,97872.63
2023-05-12T10:52:31.613Z,97877.09
2023-05-12T10:55:03.416Z,97871.63
2023-05-12T10:57:33.621Z,97882.94
2023-05-12T11:00:03.636Z,97879.97
2023-05-12T11:02:34.647Z,97873.94
2023-05-12T11:05:10.655Z,97884.00
2023-05-12T11:07:39.658Z,97880.22
2023-05-12T11:10:08.382Z,97877.22
2023-05-12T11:12:36.763Z,97881.97
2023-05-12T11:15:06.113Z,97886.91
2023-05-12T11:17:33.961Z,97877.59
2023-05-12T11:20:01.887Z,97879.50
2023-05-12T11:22:29.539Z,97875.06
2023-05-12T11:24:57.012Z,97872.38
2023-05-12T11:27:26.111Z,97878.06
2023-05-12T11:30:01.960Z,97871.16
2023-05-12T11:32:30.154Z,97872.59
2023-05-12T11:35:17.645Z,97870.63
2023-05-12T11:37:46.259Z,97873.00
2023-05-12T11:40:21.982Z,97869.91
2023-05-12T11:42:55.920Z,97874.84
2023-05-12T11:45:23.666Z,97870.53
2023-05-12T11:47:51.433Z,97868.16
2023-05-12T11:50:25.438Z,97869.97
2023-05-12T11:52:53.419Z,97865.53
2023-05-12T11:55:23.605Z,97871.66
2023-05-12T11:57:59.689Z,97866.63
2023-05-12T12:00:29.225Z,97868.72
2023-05-12T12:03:26.345Z,97874.06
2023-05-12T12:06:06.917Z,97871.47
2023-05-12T12:08:34.451Z,97869.00
2023-05-12T12:11:04.292Z,97877.16
2023-05-12T12:13:31.755Z,97876.09
2023-05-12T12:15:59.232Z,97877.75
2023-05-12T12:18:27.169Z,97876.78
2023-05-12T12:20:54.700Z,97877.63
2023-05-12T12:23:22.245Z,97877.63
2023-05-12T12:25:49.761Z,97884.72
2023-05-12T12:28:17.258Z,97878.47
2023-05-12T12:30:44.884Z,97880.09
2023-05-12T12:33:13.169Z,97883.91
2023-05-12T12:35:40.710Z,97874.53
2023-05-12T12:38:08.949Z,97885.84
2023-05-12T12:40:36.488Z,97878.19
2023-05-12T12:43:04.028Z,97878.25
2023-05-12T12:45:31.555Z,97889.97
2023-05-12T12:47:59.899Z,97882.81
2023-05-12T12:50:27.534Z,97898.19
2023-05-12T12:52:55.063Z,97897.16
2023-05-12T12:55:23.246Z,97895.94
2023-05-12T12:57:51.096Z,97882.28
2023-05-12T13:00:19.573Z,97896.16
2023-05-12T13:02:47.321Z,97891.41
2023-05-12T13:05:15.155Z,97884.97
2023-05-12T13:07:42.923Z,97887.13
2023-05-12T13:10:10.956Z,97884.75
2023-05-12T13:12:38.485Z,97891.50
2023-05-12T13:15:07.462Z,97904.50
2023-05-12T13:17:34.882Z,97893.19
2023-05-12T13:20:04.036Z,97895.38
2023-05-12T13:22:31.883Z,97897.03
2023-05-12T13:24:59.473Z,97897.84
2023-05-12T13:27:26.890Z,97898.88
2023-05-12T13:29:54.379Z,97894.56
2023-05-12T13:32:21.941Z,97897.81
2023-05-12T13:34:49.373Z,97893.22
2023-05-12T13:37:16.906Z,97899.41
2023-05-12T13:39:44.398Z,97897.38
2023-05-12T13:42:11.996Z,97891.41
2023-05-12T13:44:39.513Z,97891.38
2023-05-12T13:47:09.699Z,97891.38
2023-05-12T13:49:38.108Z,97893.97
2023-05-12T13:52:05.937Z,97891.50
2023-05-12T13:54:33.733Z,97889.63
2023-05-12T13:57:04.039Z,97900.75
2023-05-12T13:59:32.080Z,97895.44
2023-05-12T14:01:59.925Z,97896.41
2023-05-12T14:04:27.615Z,97901.56
2023-05-12T14:06:55.735Z,97906.72
2023-05-12T14:09:23.412Z,97917.31
2023-05-12T14:11:50.860Z,97916.78
2023-05-12T14:14:18.409Z,97928.97
2023-05-12T14:16:46.203Z,97929.97
2023-05-12T14:19:13.807Z,97940.63
2023-05-12T14:21:44.586Z,97938.69
2023-05-12T14:24:12.357Z,97965.13
2023-05-12T14:26:39.815Z,97949.75
2023-05-12T14:29:08.843Z,97949.47
2023-05-12T14:31:36.635Z,97921.13
2023-05-12T14:34:04.837Z,97913.22
2023-05-12T14:36:32.380Z,97913.38
2023-05-12T14:38:59.929Z,97913.09
2023-05-12T14:41:27.426Z,97911.91
2023-05-12T14:43:54.964Z,97910.88
2023-05-12T14:46:22.623Z,97905.00
2023-05-12T14:48:50.373Z,97907.41
2023-05-12T14:51:17.789Z,97904.66
2023-05-12T14:53:45.249Z,97912.72
2023-05-12T14:56:12.782Z,97908.00
2023-05-12T14:58:40.282Z,97908.19
2023-05-12T15:01:09.454Z,97898.34
2023-05-12T15:03:37.409Z,97893.66
2023-05-12T15:06:07.805Z,97895.72
2023-05-12T15:08:35.915Z,97892.56
2023-05-12T15:11:03.343Z,97900.97
2023-05-12T15:13:31.226Z,97894.25
2023-05-12T15:15:58.779Z,97895.31
2023-05-12T15:18:26.271Z,97889.31
2023-05-12T15:20:53.907Z,97893.94
2023-05-12T15:23:22.132Z,97897.34
2023-05-12T15:25:49.670Z,97892.47
2023-05-12T15:28:17.455Z,97892.69
2023-05-12T15:30:45.590Z,97885.16
2023-05-12T15:33:13.170Z,97895.22
2023-05-12T15:35:40.887Z,97895.22
2023-05-12T15:38:08.469Z,97897.63
2023-05-12T15:40:35.955Z,97898.91
2023-05-12T15:43:03.651Z,97906.72
2023-05-12T15:45:33.116Z,97902.31
2023-05-12T15:48:00.659Z,97901.50
2023-05-12T15:50:28.583Z,97905.47
2023-05-12T15:52:55.963Z,97912.34
2023-05-12T15:55:23.802Z,97904.66
2023-05-12T15:57:52.369Z,97916.47
2023-05-12T16:00:21.769Z,97910.88
2023-05-12T16:02:49.955Z,97924.66
2023-05-12T16:05:17.996Z,97926.53
2023-05-12T16:07:48.120Z,97926.78
2023-05-12T16:10:16.051Z,97912.25
2023-05-12T16:12:46.039Z,97920.34
2023-05-12T16:15:13.781Z,97924.94
2023-05-12T16:17:41.466Z,97931.66
2023-05-12T16:20:10.447Z,97934.00
2023-05-12T16:22:37.939Z,97933.97
2023-05-12T16:25:05.835Z,97946.56
2023-05-12T16:27:35.701Z,97944.97
2023-05-12T16:30:04.075Z,97950.63
2023-05-12T16:32:31.711Z,97951.19
2023-05-12T16:35:00.610Z,97946.63
2023-05-12T16:37:28.434Z,97945.75
2023-05-12T16:39:55.959Z,97950.28
2023-05-12T16:42:23.579Z,97945.94
2023-05-12T16:44:57.978Z,97950.78
2023-05-12T16:47:25.518Z,97964.47
2023-05-12T16:49:53.707Z,97957.44
2023-05-12T16:52:21.299Z,97951.16
2023-05-12T16:54:48.788Z,97952.13
2023-05-12T16:57:16.277Z,97948.13
2023-05-12T16:59:43.747Z,97946.03
2023-05-12T17:02:11.321Z,97952.56
2023-05-12T17:04:38.777Z,97951.19
2023-05-12T17:07:06.654Z,97954.72
2023-05-12T17:09:34.106Z,97943.97
2023-05-12T17:12:01.766Z,97949.94
2023-05-12T17:14:29.236Z,97948.34
2023-05-12T17:16:56.706Z,97948.09
2023-05-12T17:19:24.288Z,97944.56
2023-05-12T17:21:52.161Z,97950.44
2023-05-12T17:24:19.836Z,97948.31
2023-05-12T17:26:47.312Z,97950.16
2023-05-12T17:29:15.090Z,97947.91
2023-05-12T17:31:42.943Z,97961.28
2023-05-12T17:34:10.587Z,97962.00
2023-05-12T17:36:38.225Z,97959.63
2023-05-12T17:39:06.865Z,97952.34
2023-05-12T17:41:34.474Z,97949.09
2023-05-12T17:44:02.039Z,97949.56
2023-05-12T17:46:29.537Z,97951.94
2023-05-12T17:48:57.076Z,97951.91
2023-05-12T17:51:24.526Z,97948.91
2023-05-12T17:53:52.348Z,97954.53
2023-05-12T17:56:19.812Z,97954.78
2023-05-12T17:58:47.211Z,97952.91
2023-05-12T18:01:14.753Z,97954.53
2023-05-12T18:03:42.306Z,97953.72
2023-05-12T18:06:12.874Z,97952.91
2023-05-12T18:08:40.401Z,97956.91
2023-05-12T18:11:07.852Z,97951.78
2023-05-12T18:13:35.371Z,97952.25
2023-05-12T18:16:02.811Z,97954.41
2023-05-12T18:18:30.424Z,97958.13
2023-05-12T18:20:57.963Z,97952.25
2023-05-12T18:23:25.463Z,97954.13
2023-05-12T18:25:52.943Z,97955.22
2023-05-12T18:28:20.364Z,97960.31
2023-05-12T18:30:47.950Z,97957.88
2023-05-12T18:33:15.499Z,97965.06
2023-05-12T18:35:42.982Z,97959.63
2023-05-12T18:38:10.514Z,97964.19
2023-05-12T18:40:38.527Z,97967.63
2023-05-12T18:43:06.099Z,97978.03
2023-05-12T18:45:33.783Z,97981.19
2023-05-12T18:48:01.565Z,97984.03
2023-05-12T18:50:30.179Z,97983.19
2023-05-12T18:52:57.638Z,97990.34
2023-05-12T18:55:25.196Z,97990.75
2023-05-12T18:57:53.019Z,97989.88
2023-05-12T19:00:26.120Z,97995.34
2023-05-12T19:02:53.633Z,98004.38
2023-05-12T19:05:21.425Z,98016.06
2023-05-12T19:07:49.058Z,98019.19
2023-05-12T19:10:16.849Z,98010.81
2023-05-12T19:12:44.416Z,98012.53
2023-05-12T19:15:12.621Z,98013.81
2023-05-12T19:17:40.456Z,98011.22
2023-05-12T19:20:08.616Z,98016.91
2023-05-12T19:22:36.200Z,98023.88
2023-05-12T19:25:04.442Z,98021.13
2023-05-12T19:27:32.020Z,98033.69
2023-05-12T19:30:02.339Z,98032.91
2023-05-12T19:32:31.379Z,98040.94
2023-05-12T19:35:00.382Z,98035.03
2023-05-12T19:37:30.841Z,98040.88
2023-05-12T19:39:59.355Z,98036.22
2023-05-12T19:42:27.841Z,98041.16
2023-05-12T19:44:55.320Z,98039.19
2023-05-12T19:47:25.707Z,98046.31
2023-05-12T19:49:53.991Z,98039.25
2023-05-12T19:52:25.071Z,98034.38
2023-05-12T19:54:53.261Z,98052.06
2023-05-12T19:57:21.121Z,98048.47
2023-05-12T19:59:49.660Z,98049.28
2023-05-12T20:02:19.884Z,98050.25
2023-05-12T20:04:47.466Z,98058.75
2023-05-12T20:07:14.901Z,98056.56
2023-05-12T20:09:42.477Z,98062.38
2023-05-12T20:12:10.054Z,98061.25
2023-05-12T20:14:38.558Z,98051.50
2023-05-12T20:17:07.548Z,98046.88
2023-05-12T20:19:36.256Z,98053.50
2023-05-12T20:22:03.911Z,98048.06
2023-05-12T20:24:31.391Z,98050.28
2023-05-12T20:26:58.923Z,98057.97
2023-05-12T20:29:27.682Z,98056.25
2023-05-12T20:31:55.249Z,98053.72
2023-05-12T20:34:22.957Z,98055.22
2023-05-12T20:36:50.531Z,98055.34
2023-05-12T20:39:18.373Z,98057.81
2023-05-12T20:41:46.568Z,98049.44
2023-05-12T20:44:14.107Z,98054.44
2023-05-12T20:46:41.663Z,98058.41
2023-05-12T20:49:09.163Z,98057.34
2023-05-12T20:51:36.580Z,98056.41
2023-05-12T20:54:04.289Z,98055.50
2023-05-12T20:56:31.769Z,98044.72
2023-05-12T20:58:59.325Z,98044.72
2023-05-12T21:01:27.229Z,98054.59
2023-05-12T21:03:54.730Z,98055.16
2023-05-12T21:06:22.307Z,98051.00
2023-05-12T21:08:49.729Z,98058.16
2023-05-12T21:11:18.485Z,98060.38
2023-05-12T21:13:47.327Z,98068.19
2023-05-12T21:16:15.777Z,98061.69
2023-05-12T21:18:43.664Z,98070.72
2023-05-12T21:21:11.389Z,98065.97
2023-05-12T21:23:38.908Z,98069.00
2023-05-12T21:26:06.427Z,98062.25
2023-05-12T21:28:33.968Z,98065.25
2023-05-12T21:31:01.629Z,98067.25
2023-05-12T21:33:29.804Z,98079.09
2023-05-12T21:35:57.273Z,98083.63
2023-05-12T21:38:24.726Z,98099.19
2023-05-12T21:40:52.984Z,98094.19
2023-05-12T21:43:20.718Z,98098.03
2023-05-12T21:45:48.289Z,98095.16
2023-05-12T21:48:15.735Z,98091.09
2023-05-12T21:50:43.235Z,98092.78
2023-05-12T21:53:10.742Z,98086.38
2023-05-12T21:55:40.258Z,98084.09
2023-05-12T21:58:07.791Z,98092.22
2023-05-12T22:00:35.251Z,98094.44
2023-05-12T22:03:03.080Z,98091.31
2023-05-12T22:05:30.727Z,98102.81
2023-05-12T22:07:58.401Z,98102.13
2023-05-12T22:10:25.892Z,98096.19
2023-05-12T22:12:53.823Z,98097.47
2023-05-12T22:15:21.453Z,98107.00
2023-05-12T22:17:49.708Z,98101.06
2023-05-12T22:20:18.565Z,98099.91
2023-05-12T22:22:46.209Z,98099.53
2023-05-12T22:25:13.587Z,98105.91
2023-05-12T22:27:41.294Z,98108.00
2023-05-12T22:30:10.390Z,98110.91
2023-05-12T22:32:38.009Z,98107.28
2023-05-12T22:35:06.463Z,98107.19
2023-05-12T22:37:33.975Z,98115.75
2023-05-12T22:40:01.467Z,98117.03
2023-05-12T22:42:28.984Z,98129.56
2023-05-12T22:44:57.597Z,98119.31
2023-05-12T22:47:25.083Z,98114.34
2023-05-12T22:49:52.470Z,98125.03
2023-05-12T22:52:20.034Z,98125.38
2023-05-12T22:54:47.491Z,98133.97
2023-05-12T22:57:15.222Z,98124.91
2023-05-12T22:59:42.607Z,98128.63
2023-05-12T23:02:10.050Z,98129.91
2023-05-12T23:04:37.558Z,98121.16
2023-05-12T23:07:07.036Z,98127.78
2023-05-12T23:09:36.949Z,98128.59
2023-05-12T23:12:05.718Z,98130.06
2023-05-12T23:14:33.222Z,98130.78
2023-05-12T23:17:00.898Z,98138.44
2023-05-12T23:19:28.457Z,98136.22
2023-05-12T23:21:55.995Z,98129.91
2023-05-12T23:24:23.506Z,98128.75
2023-05-12T23:26:51.067Z,98139.19
2023-05-12T23:29:21.936Z,98137.19
2023-05-12T23:31:49.450Z,98140.44
2023-05-12T23:34:16.901Z,98136.25
2023-05-12T23:36:44.498Z,98142.03
2023-05-12T23:39:13.769Z,98145.63
2023-05-12T23:41:41.238Z,98151.41
2023-05-12T23:44:08.721Z,98142.19
2023-05-12T23:46:36.283Z,98139.53
2023-05-12T23:49:04.298Z,98145.31
2023-05-12T23:51:32.712Z,98129.19
2023-05-12T23:54:00.215Z,98136.34
2023-05-12T23:56:27.895Z,98143.16
2023-05-12T23:58:55.430Z,98135.41
